.
WxDataArchive / Data Records for 2015-03-11
2015-03-10 March 2015 2015-03-12

Data Records for Wednesday, 11 March 2015

Time	Temp	Chill	HIndex	Humid	Dewpt	 Wind 	HiWind	WindDir	Rain 	Barom
-----	----	-----	------	-----	-----	------	------	-------	-----	-----
00:00	36.9	36.9	36.9	94	35.3	0	0	---	0.00	30.040 
00:05	37.3	37.3	37.3	94	35.7	0	0	---	0.00	30.040 
00:10	37.5	37.5	37.5	93	35.7	0	0	---	0.00	30.040 
00:15	37.5	37.5	37.5	93	35.7	0	0	---	0.00	30.039 
00:20	37.5	37.5	37.5	93	35.7	0	1	90	0.00	30.039 
00:25	38.0	38.0	38.0	94	36.4	0	0	---	0.00	30.039 
00:30	38.2	38.2	38.2	94	36.6	0	0	---	0.00	30.039 
00:35	38.0	38.0	38.0	93	36.2	0	1	90	0.00	30.039 
00:40	38.2	38.2	38.2	94	36.6	0	1	90	0.00	30.039 
00:45	38.5	38.5	38.5	94	36.9	0	1	90	0.00	30.039 
00:50	38.8	38.8	38.8	94	37.2	0	1	90	0.00	30.039 
00:55	38.8	38.8	38.8	94	37.2	0	1	90	0.00	30.039 
01:00	38.8	38.8	38.8	94	37.2	0	2	90	0.00	30.039 
01:05	38.6	38.6	38.6	94	37.0	0	2	90	0.00	30.039 
01:10	38.5	38.5	38.5	94	36.9	0	2	90	0.00	30.039 
01:15	38.3	38.3	38.3	94	36.7	0	3	90	0.00	30.045 
01:20	38.3	38.3	38.3	94	36.7	0	2	90	0.00	30.045 
01:25	38.0	38.0	38.0	94	36.4	0	2	90	0.00	30.045 
01:30	38.0	38.0	38.0	94	36.4	0	2	90	0.00	30.049 
01:35	37.9	37.9	37.9	94	36.3	0	1	90	0.00	30.049 
01:40	37.8	37.8	37.8	94	36.2	0	1	90	0.00	30.049 
01:45	37.6	37.6	37.6	94	36.0	0	2	90	0.00	30.051 
01:50	37.6	37.6	37.6	94	36.0	0	1	90	0.00	30.051 
01:55	37.6	37.6	37.6	94	36.0	0	2	90	0.00	30.051 
02:00	37.6	37.6	37.6	94	36.0	0	2	90	0.00	30.053 
02:05	37.5	37.5	37.5	94	35.9	0	2	90	0.00	30.053 
02:10	37.5	37.5	37.5	95	36.2	0	1	90	0.00	30.053 
02:15	37.6	37.6	37.6	95	36.3	0	1	90	0.00	30.055 
02:20	37.6	37.6	37.6	95	36.3	0	1	90	0.00	30.055 
02:25	37.8	37.8	37.8	95	36.5	0	1	90	0.00	30.055 
02:30	37.9	37.9	37.9	95	36.6	0	1	90	0.00	30.064 
02:35	37.9	37.9	37.9	95	36.6	0	1	90	0.00	30.064 
02:40	38.0	38.0	38.0	95	36.7	1	3	90	0.00	30.064 
02:45	38.0	38.0	38.0	95	36.7	2	4	90	0.00	30.062 
02:50	37.9	37.9	37.9	95	36.6	1	3	90	0.00	30.062 
02:55	37.6	37.6	37.6	95	36.3	1	2	90	0.00	30.062 
03:00	37.5	37.5	37.5	95	36.2	1	2	90	0.00	30.069 
03:05	37.3	37.3	37.3	95	36.0	1	3	90	0.00	30.069 
03:10	37.2	37.2	37.2	95	35.9	1	2	90	0.00	30.069 
03:15	37.2	37.2	37.2	95	35.9	1	2	90	0.00	30.072 
03:20	37.2	37.2	37.2	95	35.9	1	2	90	0.00	30.072 
03:25	37.2	37.2	37.2	95	35.9	1	2	90	0.00	30.072 
03:30	37.0	37.0	37.0	95	35.7	1	3	90	0.00	30.076 
03:35	37.0	37.0	37.0	95	35.7	1	2	90	0.00	30.076 
03:40	36.9	36.9	36.9	95	35.6	1	2	90	0.00	30.076 
03:45	36.8	36.8	36.8	95	35.5	0	1	90	0.00	30.074 
03:50	36.6	36.6	36.6	95	35.3	0	2	90	0.00	30.074 
03:55	36.5	36.5	36.5	95	35.2	0	1	90	0.00	30.074 
04:00	36.3	36.3	36.3	95	35.0	0	1	90	0.00	30.077 
04:05	36.2	36.2	36.2	95	34.9	0	1	90	0.00	30.077 
04:10	36.0	36.0	36.0	95	34.7	0	1	90	0.00	30.077 
04:15	35.9	35.9	35.9	95	34.6	0	2	90	0.00	30.071 
04:20	35.8	35.8	35.8	95	34.5	0	1	90	0.00	30.071 
04:25	35.8	35.8	35.8	95	34.5	0	2	90	0.00	30.071 
04:30	35.6	35.6	35.6	95	34.3	0	2	90	0.00	30.069 
04:35	35.5	35.5	35.5	95	34.2	0	2	90	0.00	30.069 
04:40	35.3	35.3	35.3	95	34.0	0	1	90	0.00	30.069 
04:45	35.3	35.3	35.3	95	34.0	0	2	90	0.00	30.071 
04:50	35.0	35.0	35.0	95	33.7	0	1	90	0.00	30.071 
04:55	35.0	35.0	35.0	95	33.7	1	2	90	0.00	30.071 
05:00	34.9	34.9	34.9	95	33.6	0	2	90	0.00	30.071 
05:05	34.9	34.9	34.9	95	33.6	0	1	90	0.00	30.071 
05:10	34.7	34.7	34.7	95	33.4	0	1	90	0.00	30.071 
05:15	34.7	34.7	34.7	95	33.4	0	2	90	0.00	30.074 
05:20	34.7	34.7	34.7	95	33.4	0	1	90	0.00	30.074 
05:25	34.6	34.6	34.6	95	33.3	0	1	90	0.00	30.074 
05:30	34.6	34.6	34.6	95	33.3	0	0	---	0.00	30.075 
05:35	34.6	34.6	34.6	95	33.3	0	1	90	0.00	30.075 
05:40	34.4	34.4	34.4	95	33.1	0	1	90	0.00	30.075 
05:45	34.4	34.4	34.4	95	33.1	0	0	---	0.00	30.080 
05:50	34.3	34.3	34.3	95	33.0	0	0	---	0.00	30.080 
05:55	34.4	34.4	34.4	95	33.1	0	0	---	0.00	30.080 
06:00	34.3	34.3	34.3	95	33.0	0	1	90	0.00	30.088 
06:05	34.3	34.3	34.3	95	33.0	0	0	---	0.00	30.088 
06:10	34.3	34.3	34.3	95	33.0	0	0	---	0.00	30.088 
06:15	34.1	34.1	34.1	95	32.8	0	1	90	0.00	30.096 
06:20	34.1	34.1	34.1	95	32.8	0	1	90	0.00	30.096 
06:25	34.0	34.0	34.0	95	32.7	0	0	---	0.00	30.096 
06:30	33.8	33.8	33.8	95	32.5	0	1	90	0.00	30.106 
06:35	33.8	33.8	33.8	95	32.5	0	1	90	0.00	30.106 
06:40	33.8	33.8	33.8	95	32.5	0	1	90	0.00	30.106 
06:45	33.8	33.8	33.8	96	32.8	0	0	---	0.00	30.115 
06:50	33.8	33.8	33.8	95	32.5	0	1	90	0.00	30.115 
06:55	33.8	33.8	33.8	96	32.8	0	0	---	0.00	30.115 
07:00	33.8	33.8	33.8	96	32.8	0	0	---	0.00	30.121 
07:05	33.8	33.8	33.8	96	32.8	0	0	---	0.00	30.121 
07:10	33.8	33.8	33.8	96	32.8	0	1	90	0.00	30.121 
07:15	33.8	33.8	33.8	96	32.8	0	0	---	0.00	30.128 
07:20	33.8	33.8	33.8	96	32.8	0	0	---	0.00	30.128 
07:25	33.8	33.8	33.8	96	32.8	0	0	---	0.00	30.128 
07:30	34.0	34.0	34.0	96	33.0	0	1	90	0.00	30.137 
07:35	34.0	34.0	34.0	96	33.0	0	1	90	0.00	30.137 
07:40	34.0	34.0	34.0	96	33.0	0	0	---	0.00	30.137 
07:45	34.0	34.0	34.0	96	33.0	0	1	90	0.00	30.143 
07:50	33.8	33.8	33.8	96	32.8	0	1	90	0.00	30.143 
07:55	34.0	34.0	34.0	96	33.0	0	2	90	0.00	30.143 
08:00	34.0	34.0	34.0	96	33.0	0	1	90	0.00	30.145 
08:05	34.0	34.0	34.0	96	33.0	0	1	90	0.00	30.145 
08:10	34.0	34.0	34.0	96	33.0	0	1	90	0.00	30.145 
08:15	34.0	34.0	34.0	96	33.0	0	0	---	0.00	30.154 
08:20	34.0	34.0	34.0	96	33.0	0	1	90	0.00	30.154 
08:25	34.0	34.0	34.0	96	33.0	0	1	90	0.00	30.154 
08:30	34.0	34.0	34.0	96	33.0	0	0	---	0.00	30.157 
08:35	34.0	34.0	34.0	96	33.0	0	0	---	0.00	30.157 
08:40	34.1	34.1	34.1	96	33.1	0	1	90	0.00	30.157 
08:45	34.1	34.1	34.1	96	33.1	0	0	---	0.00	30.171 
08:50	34.3	34.3	34.3	96	33.3	0	1	90	0.00	30.171 
08:55	34.3	34.3	34.3	96	33.3	0	1	90	0.00	30.171 
09:00	34.4	34.4	34.4	96	33.4	0	1	90	0.00	30.174 
09:05	34.4	34.4	34.4	96	33.4	0	1	90	0.00	30.174 
09:10	34.4	34.4	34.4	96	33.4	0	3	90	0.00	30.174 
09:15	34.6	34.6	34.6	96	33.6	0	2	90	0.00	30.187 
09:20	34.6	34.6	34.6	96	33.6	0	1	90	0.00	30.187 
09:25	34.7	34.7	34.7	96	33.7	0	1	90	0.00	30.187 
09:30	34.7	34.7	34.7	96	33.7	0	1	90	0.00	30.200 
09:35	34.9	34.9	34.9	96	33.9	0	2	90	0.00	30.200 
09:40	35.0	35.0	35.0	96	34.0	0	0	---	0.00	30.200 
09:45	35.3	35.3	35.3	96	34.3	0	1	90	0.00	30.203 
09:50	35.3	35.3	35.3	96	34.3	0	1	90	0.00	30.203 
09:55	35.5	35.5	35.5	96	34.5	0	2	90	0.00	30.203 
10:00	35.5	35.5	35.5	96	34.5	0	2	90	0.00	30.203 
10:05	35.6	35.6	35.6	96	34.6	0	1	90	0.00	30.203 
10:10	35.9	35.9	35.9	96	34.9	0	2	90	0.00	30.203 
10:15	36.0	36.0	36.0	96	35.0	0	2	90	0.00	30.211 
10:20	36.2	36.2	36.2	96	35.2	0	2	90	0.00	30.211 
10:25	36.5	36.5	36.5	96	35.5	0	0	---	0.00	30.211 
10:30	36.6	36.6	36.6	96	35.6	0	1	90	0.00	30.216 
10:35	36.9	36.9	36.9	96	35.9	0	2	90	0.00	30.216 
10:40	36.9	36.9	36.9	96	35.9	0	2	90	0.00	30.216 
10:45	37.2	37.2	37.2	96	36.2	0	1	90	0.00	30.221 
10:50	37.3	37.3	37.3	96	36.3	0	1	90	0.00	30.221 
10:55	37.5	37.5	37.5	96	36.5	0	2	90	0.00	30.221 
11:00	37.6	37.6	37.6	96	36.6	0	1	90	0.00	30.224 
11:05	37.8	37.8	37.8	96	36.8	0	1	90	0.00	30.224 
11:10	37.9	37.9	37.9	96	36.9	0	0	---	0.00	30.224 
11:15	38.0	38.0	38.0	96	37.0	0	1	90	0.00	30.229 
11:20	38.3	38.3	38.3	97	37.5	0	1	90	0.00	30.229 
11:25	38.5	38.5	38.5	96	37.5	0	1	90	0.00	30.229 
11:30	38.6	38.6	38.6	96	37.6	0	2	90	0.00	30.226 
11:35	38.5	38.5	38.5	97	37.7	0	1	90	0.00	30.226 
11:40	38.5	38.5	38.5	96	37.5	1	4	90	0.00	30.226 
11:45	38.6	38.6	38.6	96	37.6	2	4	90	0.00	30.234 
11:50	38.6	38.6	38.6	96	37.6	1	3	90	0.00	30.234 
11:55	38.9	38.9	38.9	96	37.9	0	2	90	0.00	30.234 
12:00	38.9	38.9	38.9	96	37.9	0	3	90	0.00	30.238 
12:05	39.1	39.1	39.1	96	38.1	1	5	90	0.00	30.238 
12:10	39.3	39.3	39.3	97	38.5	1	3	90	0.00	30.238 
12:15	39.9	39.9	39.9	97	39.1	0	3	90	0.00	30.236 
12:20	40.3	40.3	40.3	97	39.5	3	6	90	0.00	30.236 
12:25	40.5	40.5	40.5	96	39.5	2	5	90	0.00	30.236 
12:30	40.3	40.3	40.3	96	39.3	3	6	90	0.00	30.240 
12:35	40.3	40.3	40.3	96	39.3	3	6	90	0.00	30.240 
12:40	40.6	40.6	40.6	96	39.5	1	3	90	0.00	30.240 
12:45	40.6	40.6	40.6	96	39.5	1	3	90	0.00	30.241 
12:50	40.9	40.9	40.9	96	39.8	1	4	90	0.00	30.241 
12:55	41.5	41.5	41.5	96	40.4	1	4	90	0.00	30.241 
13:00	42.1	42.1	42.1	95	40.8	1	3	90	0.00	30.243 
13:05	42.2	42.2	42.2	95	40.9	0	2	90	0.00	30.243 
13:10	42.3	42.3	42.3	94	40.7	1	6	90	0.00	30.243 
13:15	42.2	42.2	42.2	93	40.3	3	5	90	0.00	30.245 
13:20	42.5	42.5	42.5	92	40.3	2	5	90	0.00	30.245 
13:25	42.8	42.8	42.8	91	40.4	2	4	90	0.00	30.245 
13:30	43.1	43.1	43.1	91	40.7	1	6	90	0.00	30.244 
13:35	43.1	43.1	43.1	89	40.1	3	6	90	0.00	30.244 
13:40	42.9	40.7	42.9	87	39.3	4	6	112	0.00	30.244 
13:45	43.2	43.2	43.2	87	39.6	2	6	90	0.00	30.246 
13:50	43.6	43.6	43.6	86	39.7	2	6	90	0.00	30.246 
13:55	43.9	43.9	43.9	85	39.7	1	7	112	0.00	30.246 
14:00	44.3	44.3	44.3	84	39.8	1	4	90	0.00	30.247 
14:05	44.8	44.8	44.8	82	39.6	2	5	112	0.00	30.247 
14:10	44.8	44.8	44.8	78	38.4	3	9	112	0.00	30.247 
14:15	45.2	45.2	45.2	77	38.4	1	6	68	0.00	30.245 
14:20	45.4	45.4	45.4	75	37.9	2	9	112	0.00	30.245 
14:25	45.5	43.7	45.5	73	37.4	4	7	90	0.00	30.245 
14:30	45.5	43.7	45.5	70	36.3	4	9	90	0.00	30.244 
14:35	45.7	43.9	45.7	69	36.1	4	10	90	0.00	30.244 
14:40	45.8	44.0	45.8	67	35.5	4	10	112	0.00	30.244 
14:45	46.0	44.2	46.0	66	35.3	4	9	112	0.00	30.245 
14:50	46.2	44.5	46.2	67	35.9	4	7	112	0.00	30.245 
14:55	46.7	46.7	46.7	67	36.3	2	5	112	0.00	30.245 
15:00	46.8	46.8	46.8	66	36.0	3	9	90	0.00	30.245 
15:05	47.0	47.0	47.0	66	36.2	3	8	112	0.00	30.245 
15:10	47.3	47.3	47.3	67	36.9	3	6	90	0.00	30.245 
15:15	47.4	47.4	47.4	67	37.0	3	7	90	0.00	30.250 
15:20	47.6	47.6	47.6	67	37.2	3	6	90	0.00	30.250 
15:25	47.7	47.7	47.7	67	37.3	1	5	90	0.00	30.250 
15:30	47.6	47.6	47.6	68	37.6	3	6	112	0.00	30.254 
15:35	47.6	47.6	47.6	67	37.2	3	5	90	0.00	30.254 
15:40	47.7	47.7	47.7	67	37.3	3	7	90	0.00	30.254 
15:45	48.0	48.0	48.0	67	37.6	3	5	112	0.00	30.255 
15:50	48.3	48.3	48.3	67	37.9	2	7	112	0.00	30.255 
15:55	48.5	48.5	48.5	66	37.7	2	4	112	0.00	30.255 
16:00	48.6	48.6	48.6	65	37.4	2	6	90	0.00	30.254 
16:05	48.6	48.6	48.6	64	37.0	2	4	90	0.00	30.254 
16:10	48.9	48.9	48.9	64	37.3	1	5	90	0.00	30.254 
16:15	48.9	48.9	48.9	64	37.3	2	5	90	0.00	30.255 
16:20	48.9	48.9	48.9	65	37.7	2	5	90	0.00	30.255 
16:25	48.8	48.8	48.8	64	37.2	3	5	90	0.00	30.255 
16:30	48.8	48.8	48.8	65	37.6	1	4	90	0.00	30.261 
16:35	48.9	48.9	48.9	65	37.7	1	5	90	0.00	30.261 
16:40	48.9	48.9	48.9	63	36.9	2	6	90	0.00	30.261 
16:45	48.8	48.8	48.8	62	36.4	2	6	90	0.00	30.263 
16:50	48.6	48.6	48.6	63	36.6	3	7	90	0.00	30.263 
16:55	48.3	46.9	48.3	60	35.1	4	7	90	0.00	30.263 
17:00	48.3	48.3	48.3	60	35.1	2	7	112	0.00	30.274 
17:05	48.2	48.2	48.2	58	34.1	3	7	90	0.00	30.274 
17:10	48.2	48.2	48.2	59	34.6	3	5	112	0.00	30.274 
17:15	48.0	48.0	48.0	59	34.4	3	5	90	0.00	30.281 
17:20	48.0	48.0	48.0	60	34.8	2	6	90	0.00	30.281 
17:25	48.0	48.0	48.0	59	34.4	1	4	90	0.00	30.281 
17:30	47.9	47.9	47.9	59	34.3	2	5	90	0.00	30.285 
17:35	47.9	47.9	47.9	60	34.7	2	5	90	0.00	30.285 
17:40	47.9	47.9	47.9	60	34.7	2	4	90	0.00	30.285 
17:45	47.9	47.9	47.9	59	34.3	2	5	90	0.00	30.290 
17:50	47.7	47.7	47.7	59	34.1	2	5	90	0.00	30.290 
17:55	47.7	47.7	47.7	59	34.1	2	4	90	0.00	30.290 
18:00	47.6	47.6	47.6	59	34.0	1	4	90	0.00	30.290 
18:05	47.7	47.7	47.7	60	34.5	1	3	90	0.00	30.290 
18:10	47.7	47.7	47.7	59	34.1	1	3	90	0.00	30.290 
18:15	47.7	47.7	47.7	57	33.2	1	4	90	0.00	30.290 
18:20	47.7	47.7	47.7	59	34.1	1	3	90	0.00	30.290 
18:25	47.7	47.7	47.7	60	34.5	0	2	90	0.00	30.290 
18:30	47.6	47.6	47.6	59	34.0	0	1	90	0.00	30.291 
18:35	47.4	47.4	47.4	61	34.6	1	3	90	0.00	30.291 
18:40	47.3	47.3	47.3	62	34.9	1	4	90	0.00	30.291 
18:45	47.3	47.3	47.3	61	34.5	1	2	90	0.00	30.305 
18:50	47.1	47.1	47.1	61	34.4	1	3	90	0.00	30.305 
18:55	47.0	47.0	47.0	62	34.7	1	3	90	0.00	30.305 
19:00	46.8	46.8	46.8	62	34.5	0	1	90	0.00	30.315 
19:05	46.7	46.7	46.7	63	34.8	0	2	90	0.00	30.315 
19:10	46.4	46.4	46.4	64	34.9	0	2	90	0.00	30.315 
19:15	46.2	46.2	46.2	65	35.1	0	1	90	0.00	30.322 
19:20	46.0	46.0	46.0	66	35.3	0	0	---	0.00	30.322 
19:25	45.7	45.7	45.7	67	35.4	0	0	---	0.00	30.322 
19:30	45.4	45.4	45.4	68	35.5	0	0	---	0.00	30.326 
19:35	44.9	44.9	44.9	69	35.4	0	0	---	0.00	30.326 
19:40	44.5	44.5	44.5	70	35.3	0	0	---	0.00	30.326 
19:45	43.9	43.9	43.9	71	35.1	0	0	---	0.00	30.332 
19:50	43.5	43.5	43.5	72	35.1	0	0	---	0.00	30.332 
19:55	42.9	42.9	42.9	73	34.9	0	0	---	0.00	30.332 
20:00	42.3	42.3	42.3	74	34.6	0	0	---	0.00	30.343 
20:05	41.9	41.9	41.9	76	34.9	0	0	---	0.00	30.343 
20:10	41.5	41.5	41.5	76	34.5	0	0	---	0.00	30.343 
20:15	40.9	40.9	40.9	76	33.9	0	0	---	0.00	30.356 
20:20	40.5	40.5	40.5	77	33.9	0	0	---	0.00	30.356 
20:25	40.2	40.2	40.2	79	34.2	0	0	---	0.00	30.356 
20:30	39.9	39.9	39.9	79	33.9	0	0	---	0.00	30.362 
20:35	39.5	39.5	39.5	80	33.9	0	0	---	0.00	30.362 
20:40	39.1	39.1	39.1	80	33.5	0	0	---	0.00	30.362 
20:45	38.6	38.6	38.6	81	33.3	0	0	---	0.00	30.363 
20:50	38.3	38.3	38.3	82	33.3	0	0	---	0.00	30.363 
20:55	37.9	37.9	37.9	82	32.9	0	0	---	0.00	30.363 
21:00	37.6	37.6	37.6	83	32.9	0	0	---	0.00	30.364 
21:05	37.2	37.2	37.2	83	32.5	0	0	---	0.00	30.364 
21:10	36.9	36.9	36.9	84	32.5	0	0	---	0.00	30.364 
21:15	36.6	36.6	36.6	85	32.5	0	0	---	0.00	30.364 
21:20	36.3	36.3	36.3	85	32.2	0	0	---	0.00	30.364 
21:25	36.0	36.0	36.0	85	31.9	0	0	---	0.00	30.364 
21:30	35.8	35.8	35.8	86	32.0	0	0	---	0.00	30.367 
21:35	35.5	35.5	35.5	86	31.7	0	0	---	0.00	30.367 
21:40	35.2	35.2	35.2	86	31.4	0	0	---	0.00	30.367 
21:45	34.9	34.9	34.9	87	31.4	0	0	---	0.00	30.372 
21:50	34.7	34.7	34.7	87	31.2	0	0	---	0.00	30.372 
21:55	34.4	34.4	34.4	87	30.9	0	0	---	0.00	30.372 
22:00	34.1	34.1	34.1	87	30.6	0	0	---	0.00	30.377 
22:05	33.8	33.8	33.8	88	30.6	0	0	---	0.00	30.377 
22:10	33.7	33.7	33.7	88	30.5	0	0	---	0.00	30.377 
22:15	33.5	33.5	33.5	88	30.3	0	0	---	0.00	30.380 
22:20	33.2	33.2	33.2	88	30.0	0	0	---	0.00	30.380 
22:25	33.1	33.1	33.1	88	29.9	0	0	---	0.00	30.380 
22:30	32.8	32.8	32.8	88	29.6	0	0	---	0.00	30.395 
22:35	32.7	32.7	32.7	89	29.8	0	0	---	0.00	30.395 
22:40	32.7	32.7	32.7	89	29.8	0	0	---	0.00	30.395 
22:45	32.8	32.8	32.8	90	30.2	0	0	---	0.00	30.396 
22:50	32.8	32.8	32.8	90	30.2	0	0	---	0.00	30.396 
22:55	32.5	32.5	32.5	90	29.9	0	0	---	0.00	30.396 
23:00	32.4	32.4	32.4	90	29.8	0	0	---	0.00	30.406 
23:05	32.1	32.1	32.1	90	29.5	0	0	---	0.00	30.406 
23:10	31.8	31.8	31.8	90	29.2	0	0	---	0.00	30.406 
23:15	31.5	31.5	31.5	90	28.9	0	0	---	0.00	30.413 
23:20	31.3	31.3	31.3	90	28.7	0	0	---	0.00	30.413 
23:25	31.2	31.2	31.2	90	28.6	0	0	---	0.00	30.413 
23:30	31.0	31.0	31.0	90	28.4	0	0	---	0.00	30.417 
23:35	30.7	30.7	30.7	90	28.1	0	0	---	0.00	30.417 
23:40	30.6	30.6	30.6	90	28.0	0	0	---	0.00	30.417 
23:45	30.6	30.6	30.6	90	28.0	0	0	---	0.00	30.425 
23:50	30.3	30.3	30.3	90	27.7	0	0	---	0.00	30.425 
23:55	30.3	30.3	30.3	90	27.7	0	0	---	0.00	30.425 

CoCoRaHS
IN-AL-39
A2 Web Hosting
Creative Commons License
GoDaddy
search engine by freefind advanced

loaded 2018-11-15 15:53:51 • last modified 2010-11-18 10:43:29
Privacy PolicyDisclaimer
• wx.awcolley.com is powered by PmWiki v.2002016 •
• all content (unless otherwise noted) © 2018 A W Colley